createdAt,value
2022-10-19T00:02:07.048Z,90.15
2022-10-19T00:04:38.350Z,90.47
2022-10-19T00:07:06.398Z,90.68
2022-10-19T00:09:35.806Z,90.62
2022-10-19T00:12:04.845Z,90.41
2022-10-19T00:14:34.077Z,90.85
2022-10-19T00:17:03.904Z,90.51
2022-10-19T00:19:32.869Z,90.71
2022-10-19T00:22:01.215Z,90.99
2022-10-19T00:24:29.721Z,91.01
2022-10-19T00:27:01.017Z,91.02
2022-10-19T00:29:29.836Z,91.34
2022-10-19T00:31:58.169Z,91.51
2022-10-19T00:34:29.146Z,91.60
2022-10-19T00:36:57.622Z,91.58
2022-10-19T00:39:25.790Z,91.19
2022-10-19T00:41:55.692Z,91.80
2022-10-19T00:44:59.930Z,91.81
2022-10-19T00:47:29.714Z,91.70
2022-10-19T00:50:03.227Z,91.73
2022-10-19T00:52:32.699Z,92.45
2022-10-19T00:55:02.056Z,92.49
2022-10-19T00:57:33.874Z,92.48
2022-10-19T01:00:04.296Z,92.50
2022-10-19T01:02:34.714Z,92.09
2022-10-19T01:05:06.285Z,92.17
2022-10-19T01:07:36.468Z,92.40
2022-10-19T01:10:06.835Z,92.16
2022-10-19T01:12:52.859Z,92.43
2022-10-19T01:15:32.359Z,92.73
2022-10-19T01:18:11.057Z,92.51
2022-10-19T01:21:06.578Z,92.43
2022-10-19T01:24:11.364Z,91.84
2022-10-19T01:27:27.281Z,91.96
2022-10-19T01:30:05.523Z,92.27
2022-10-19T01:32:43.195Z,91.84
2022-10-19T01:35:15.238Z,91.89
2022-10-19T01:37:50.843Z,92.29
2022-10-19T01:40:27.901Z,91.88
2022-10-19T01:43:04.098Z,92.25
2022-10-19T01:45:40.800Z,92.42
2022-10-19T01:48:15.918Z,92.14
2022-10-19T01:50:49.151Z,92.09
2022-10-19T01:53:20.307Z,92.12
2022-10-19T01:55:52.353Z,92.41
2022-10-19T01:58:28.223Z,92.33
2022-10-19T02:01:01.698Z,92.25
2022-10-19T02:03:33.190Z,92.52
2022-10-19T02:06:01.476Z,92.40
2022-10-19T02:08:36.203Z,92.22
2022-10-19T02:11:05.574Z,92.20
2022-10-19T02:13:36.589Z,92.16
2022-10-19T02:16:10.869Z,92.27
2022-10-19T02:18:44.467Z,92.33
2022-10-19T02:21:12.590Z,92.37
2022-10-19T02:23:41.439Z,92.39
2022-10-19T02:26:10.204Z,92.35
2022-10-19T02:28:39.752Z,92.55
2022-10-19T02:31:10.435Z,92.78
2022-10-19T02:33:39.607Z,92.73
2022-10-19T02:36:08.784Z,92.75
2022-10-19T02:38:37.481Z,93.03
2022-10-19T02:41:13.478Z,93.08
2022-10-19T02:43:44.926Z,93.22
2022-10-19T02:46:22.157Z,92.99
2022-10-19T02:48:52.450Z,93.11
2022-10-19T02:51:36.009Z,92.92
2022-10-19T02:54:06.400Z,93.01
2022-10-19T02:56:35.686Z,92.83
2022-10-19T02:59:04.582Z,92.55
2022-10-19T03:01:34.379Z,92.48
2022-10-19T03:04:02.882Z,92.53
2022-10-19T03:06:31.142Z,92.25
2022-10-19T03:08:59.475Z,92.00
2022-10-19T03:11:28.062Z,91.78
2022-10-19T03:13:57.273Z,91.39
2022-10-19T03:16:26.077Z,91.67
2022-10-19T03:18:55.952Z,91.67
2022-10-19T03:21:24.353Z,91.73
2022-10-19T03:23:52.613Z,91.68
2022-10-19T03:26:21.239Z,91.46
2022-10-19T03:28:49.871Z,90.55
2022-10-19T03:31:19.196Z,90.16
2022-10-19T03:33:47.558Z,89.82
2022-10-19T03:36:23.395Z,89.77
2022-10-19T03:38:54.002Z,89.16
2022-10-19T03:41:23.667Z,88.78
2022-10-19T03:43:52.506Z,88.52
2022-10-19T03:46:22.018Z,88.06
2022-10-19T03:48:50.727Z,87.54
2022-10-19T03:51:26.057Z,87.49
2022-10-19T03:53:55.039Z,87.16
2022-10-19T03:56:25.628Z,86.88
2022-10-19T03:58:56.716Z,86.92
2022-10-19T04:01:27.131Z,87.32
2022-10-19T04:03:56.730Z,87.59
2022-10-19T04:06:28.656Z,87.44
2022-10-19T04:08:57.034Z,87.56
2022-10-19T04:11:28.032Z,87.66
2022-10-19T04:13:58.591Z,87.68
2022-10-19T04:16:28.795Z,87.81
2022-10-19T04:18:58.352Z,87.89
2022-10-19T04:21:30.524Z,87.83
2022-10-19T04:24:01.856Z,87.51
2022-10-19T04:26:34.523Z,87.87
2022-10-19T04:29:03.331Z,88.16
2022-10-19T04:31:31.707Z,88.49
2022-10-19T04:34:01.200Z,88.78
2022-10-19T04:36:31.133Z,88.99
2022-10-19T04:39:02.937Z,89.29
2022-10-19T04:41:33.028Z,89.34
2022-10-19T04:44:03.241Z,89.65
2022-10-19T04:46:32.184Z,89.60
2022-10-19T04:49:01.193Z,89.55
2022-10-19T04:51:31.584Z,89.68
2022-10-19T04:54:00.122Z,89.67
2022-10-19T04:56:31.142Z,89.79
2022-10-19T04:59:05.888Z,89.73
2022-10-19T05:01:33.899Z,89.78
2022-10-19T05:04:05.916Z,89.88
2022-10-19T05:06:35.826Z,90.26
2022-10-19T05:09:04.012Z,90.14
2022-10-19T05:11:34.261Z,90.16
2022-10-19T05:14:16.923Z,90.64
2022-10-19T05:16:49.716Z,91.03
2022-10-19T05:19:19.304Z,90.79
2022-10-19T05:21:56.133Z,91.12
2022-10-19T05:24:25.199Z,91.48
2022-10-19T05:26:56.249Z,91.73
2022-10-19T05:29:25.224Z,91.86
2022-10-19T05:31:55.607Z,92.55
2022-10-19T05:34:23.763Z,92.51
2022-10-19T05:36:53.341Z,92.10
2022-10-19T05:39:21.947Z,92.17
2022-10-19T05:41:50.815Z,92.05
2022-10-19T05:44:21.959Z,92.10
2022-10-19T05:46:53.188Z,91.91
2022-10-19T05:49:24.135Z,92.09
2022-10-19T05:51:54.363Z,92.28
2022-10-19T05:54:28.602Z,92.16
2022-10-19T05:56:59.616Z,92.37
2022-10-19T05:59:28.767Z,92.18
2022-10-19T06:01:57.179Z,91.90
2022-10-19T06:04:27.452Z,91.72
2022-10-19T06:06:59.382Z,91.46
2022-10-19T06:09:27.215Z,90.83
2022-10-19T06:12:01.828Z,90.04
2022-10-19T06:14:30.167Z,89.37
2022-10-19T06:16:58.540Z,88.79
2022-10-19T06:19:32.897Z,88.42
2022-10-19T06:22:03.732Z,88.00
2022-10-19T06:24:34.254Z,87.99
2022-10-19T06:27:04.576Z,87.98
2022-10-19T06:29:39.604Z,87.83
2022-10-19T06:32:08.883Z,87.75
2022-10-19T06:34:38.656Z,87.42
2022-10-19T06:37:12.931Z,86.92
2022-10-19T06:39:45.885Z,86.12
2022-10-19T06:42:15.960Z,86.05
2022-10-19T06:44:44.409Z,85.98
2022-10-19T06:47:13.092Z,85.75
2022-10-19T06:49:46.150Z,85.82
2022-10-19T06:52:19.518Z,85.20
2022-10-19T06:54:49.506Z,85.27
2022-10-19T06:57:22.805Z,84.53
2022-10-19T06:59:53.032Z,84.36
2022-10-19T07:02:22.176Z,84.24
2022-10-19T07:04:55.744Z,83.98
2022-10-19T07:07:25.438Z,83.74
2022-10-19T07:10:01.767Z,83.13
2022-10-19T07:12:33.699Z,82.08
2022-10-19T07:15:03.555Z,82.14
2022-10-19T07:17:34.943Z,81.41
2022-10-19T07:20:04.305Z,81.04
2022-10-19T07:22:39.894Z,80.12
2022-10-19T07:25:11.420Z,80.63
2022-10-19T07:27:45.269Z,80.52
2022-10-19T07:30:14.461Z,80.63
2022-10-19T07:32:47.035Z,80.13
2022-10-19T07:35:19.508Z,79.58
2022-10-19T07:37:49.093Z,79.96
2022-10-19T07:40:19.473Z,79.64
2022-10-19T07:42:49.860Z,78.74
2022-10-19T07:45:18.411Z,78.32
2022-10-19T07:47:50.034Z,77.74
2022-10-19T07:50:28.254Z,77.92
2022-10-19T07:53:05.578Z,78.29
2022-10-19T07:55:36.945Z,78.26
2022-10-19T07:58:08.275Z,76.65
2022-10-19T08:06:04.760Z,76.16
2022-10-19T08:08:36.922Z,75.35
2022-10-19T08:11:11.846Z,75.89
2022-10-19T08:13:41.365Z,75.65
2022-10-19T08:16:25.440Z,76.14
2022-10-19T08:19:00.912Z,75.39
2022-10-19T08:21:31.403Z,74.98
2022-10-19T08:24:04.560Z,72.91
2022-10-19T08:26:39.097Z,74.22
2022-10-19T08:29:11.552Z,72.91
2022-10-19T08:31:46.762Z,72.89
2022-10-19T08:34:17.572Z,73.21
2022-10-19T08:36:46.773Z,72.48
2022-10-19T08:39:19.321Z,72.08
2022-10-19T08:42:03.782Z,72.34
2022-10-19T08:44:56.563Z,71.47
2022-10-19T08:47:39.760Z,72.06
2022-10-19T08:50:23.293Z,72.02
2022-10-19T08:52:56.489Z,73.36
2022-10-19T08:55:35.897Z,70.79
2022-10-19T08:58:19.755Z,71.32
2022-10-19T09:00:56.277Z,70.72
2022-10-19T09:03:37.607Z,70.61
2022-10-19T09:06:22.452Z,70.16
2022-10-19T09:08:55.250Z,70.63
2022-10-19T09:11:30.242Z,71.25
2022-10-19T09:14:06.869Z,69.97
2022-10-19T09:16:37.546Z,69.93
2022-10-19T09:19:18.321Z,70.19
2022-10-19T09:21:55.408Z,69.71
2022-10-19T09:24:43.135Z,69.92
2022-10-19T09:27:20.000Z,69.82
2022-10-19T09:29:57.575Z,69.29
2022-10-19T09:32:40.019Z,68.42
2022-10-19T09:35:19.780Z,68.15
2022-10-19T09:37:52.168Z,67.82
2022-10-19T09:40:26.811Z,68.69
2022-10-19T09:43:08.870Z,68.95
2022-10-19T09:45:41.805Z,68.64
2022-10-19T09:48:19.458Z,67.40
2022-10-19T09:50:55.818Z,67.39
2022-10-19T09:53:30.103Z,66.84
2022-10-19T09:56:06.392Z,67.38
2022-10-19T09:58:48.807Z,66.85
2022-10-19T10:01:41.457Z,67.20
2022-10-19T10:04:14.904Z,67.02
2022-10-19T10:06:45.070Z,66.95
2022-10-19T10:09:20.256Z,68.50
2022-10-19T10:11:52.661Z,66.95
2022-10-19T10:14:26.714Z,66.36
2022-10-19T10:17:00.423Z,66.35
2022-10-19T10:19:32.053Z,65.68
2022-10-19T10:22:01.604Z,65.24
2022-10-19T10:24:35.266Z,65.08
2022-10-19T10:27:07.674Z,64.62
2022-10-19T10:29:40.087Z,63.51
2022-10-19T10:32:10.044Z,61.91
2022-10-19T10:34:59.931Z,63.55
2022-10-19T10:37:32.816Z,62.17
2022-10-19T10:40:06.784Z,63.02
2022-10-19T10:42:43.030Z,63.04
2022-10-19T10:45:20.294Z,64.19
2022-10-19T10:47:51.630Z,63.18
2022-10-19T10:50:25.425Z,62.83
2022-10-19T10:53:13.890Z,62.71
2022-10-19T10:55:48.741Z,62.96
2022-10-19T10:58:25.500Z,62.33
2022-10-19T11:01:07.658Z,62.36
2022-10-19T11:03:44.575Z,62.96
2022-10-19T11:06:16.115Z,63.11
2022-10-19T11:08:50.175Z,59.57
2022-10-19T11:11:24.465Z,58.88
2022-10-19T11:14:02.959Z,58.56
2022-10-19T11:16:38.847Z,55.59
2022-10-19T11:21:53.773Z,54.47
2022-10-19T11:24:33.546Z,54.54
2022-10-19T11:27:15.760Z,53.87
2022-10-19T11:29:56.883Z,54.42
2022-10-19T11:32:38.162Z,55.38
2022-10-19T11:35:27.440Z,54.38
2022-10-19T11:38:19.444Z,53.07
2022-10-19T11:41:16.891Z,53.31
2022-10-19T11:43:58.286Z,50.41
2022-10-19T11:46:35.830Z,50.88
2022-10-19T11:49:20.690Z,51.11
2022-10-19T11:51:57.905Z,50.73
2022-10-19T11:54:42.026Z,50.52
2022-10-19T11:57:14.958Z,50.92
2022-10-19T12:00:08.290Z,50.03
2022-10-19T12:03:13.122Z,50.70
2022-10-19T12:05:54.653Z,50.03
2022-10-19T12:08:43.601Z,50.71
2022-10-19T12:11:30.496Z,51.03
2022-10-19T12:14:04.183Z,52.42
2022-10-19T12:16:41.245Z,50.53
2022-10-19T12:19:21.172Z,51.04
2022-10-19T12:21:54.996Z,50.51
2022-10-19T12:24:28.653Z,49.38
2022-10-19T12:27:01.504Z,49.47
2022-10-19T12:29:41.416Z,48.91
2022-10-19T12:32:16.764Z,49.80
2022-10-19T12:34:53.427Z,50.47
2022-10-19T12:37:30.289Z,50.28
2022-10-19T12:40:06.182Z,50.08
2022-10-19T12:42:40.283Z,50.21
2022-10-19T12:45:23.410Z,50.44
2022-10-19T12:48:21.683Z,49.49
2022-10-19T12:51:06.772Z,49.63
2022-10-19T12:53:40.422Z,49.44
2022-10-19T12:56:14.890Z,47.36
2022-10-19T12:58:51.236Z,47.78
2022-10-19T13:01:28.119Z,47.93
2022-10-19T13:04:10.570Z,48.26
2022-10-19T13:06:43.288Z,48.53
2022-10-19T13:09:24.546Z,48.72
2022-10-19T13:12:26.261Z,49.36
2022-10-19T13:14:55.929Z,50.39
2022-10-19T13:17:49.386Z,50.03
2022-10-19T13:20:49.741Z,50.52
2022-10-19T13:23:42.366Z,49.85
2022-10-19T13:26:35.569Z,50.54
2022-10-19T13:29:28.968Z,50.61
2022-10-19T13:32:18.497Z,50.63
2022-10-19T13:34:47.522Z,51.34
2022-10-19T13:37:23.855Z,49.66
2022-10-19T13:39:56.533Z,50.18
2022-10-19T13:42:28.634Z,51.37
2022-10-19T13:45:00.185Z,52.04
2022-10-19T13:50:37.408Z,51.47
2022-10-19T13:53:25.631Z,51.47
2022-10-19T13:56:14.627Z,51.40
2022-10-19T13:59:24.766Z,50.65
2022-10-19T14:02:17.496Z,51.36
2022-10-19T14:04:54.017Z,50.34
2022-10-19T14:07:28.452Z,49.81
2022-10-19T14:10:11.576Z,50.27
2022-10-19T14:12:43.347Z,50.95
2022-10-19T14:15:28.382Z,49.45
2022-10-19T14:18:06.157Z,50.06
2022-10-19T14:20:40.673Z,50.57
2022-10-19T14:23:24.586Z,51.10
2022-10-19T14:25:57.189Z,51.94
2022-10-19T14:28:28.751Z,52.49
2022-10-19T14:31:00.017Z,52.66
2022-10-19T14:33:37.158Z,53.62
2022-10-19T14:36:08.264Z,54.61
2022-10-19T14:38:46.523Z,55.13
2022-10-19T14:41:21.783Z,55.15
2022-10-19T14:43:55.139Z,54.36
2022-10-19T14:46:27.304Z,53.70
2022-10-19T14:49:01.719Z,54.69
2022-10-19T14:51:36.093Z,55.47
2022-10-19T14:54:08.748Z,55.56
2022-10-19T14:56:42.334Z,56.01
2022-10-19T14:59:23.540Z,56.08
2022-10-19T15:01:53.826Z,56.21
2022-10-19T15:04:27.680Z,56.36
2022-10-19T15:06:59.028Z,56.51
2022-10-19T15:09:37.288Z,56.29
2022-10-19T15:12:10.337Z,57.04
2022-10-19T15:14:39.300Z,56.83
2022-10-19T15:17:24.361Z,56.70
2022-10-19T15:20:00.108Z,56.65
2022-10-19T15:22:40.250Z,56.48
2022-10-19T15:25:29.252Z,56.34
2022-10-19T15:27:57.922Z,55.56
2022-10-19T15:30:29.853Z,56.12
2022-10-19T15:33:11.905Z,56.77
2022-10-19T15:35:44.297Z,56.64
2022-10-19T15:38:20.763Z,56.61
2022-10-19T15:40:49.521Z,57.02
2022-10-19T15:43:45.339Z,57.41
2022-10-19T15:46:25.787Z,57.38
2022-10-19T15:48:55.784Z,57.69
2022-10-19T15:51:45.615Z,57.74
2022-10-19T15:54:17.377Z,58.91
2022-10-19T15:56:47.607Z,58.24
2022-10-19T15:59:18.130Z,58.14
2022-10-19T16:01:52.415Z,58.35
2022-10-19T16:04:24.489Z,58.13
2022-10-19T16:06:54.239Z,57.74
2022-10-19T16:09:23.287Z,57.92
2022-10-19T16:11:57.044Z,57.87
2022-10-19T16:14:26.486Z,58.58
2022-10-19T16:17:04.014Z,58.52
2022-10-19T16:19:32.781Z,58.35
2022-10-19T16:22:02.542Z,58.45
2022-10-19T16:24:30.780Z,59.05
2022-10-19T16:27:00.315Z,58.98
2022-10-19T16:29:29.104Z,59.48
2022-10-19T16:31:57.553Z,59.34
2022-10-19T16:34:26.220Z,59.77
2022-10-19T16:36:56.377Z,60.70
2022-10-19T16:39:26.428Z,60.54
2022-10-19T16:41:54.671Z,61.03
2022-10-19T16:44:23.237Z,60.92
2022-10-19T16:46:51.772Z,61.43
2022-10-19T16:49:26.520Z,61.34
2022-10-19T16:51:57.792Z,61.38
2022-10-19T16:54:33.144Z,61.52
2022-10-19T16:57:08.656Z,60.93
2022-10-19T16:59:43.263Z,61.43
2022-10-19T17:02:13.840Z,61.34
2022-10-19T17:04:43.151Z,61.09
2022-10-19T17:07:20.482Z,61.47
2022-10-19T17:09:54.829Z,61.85
2022-10-19T17:12:27.171Z,62.56
2022-10-19T17:15:11.573Z,62.20
2022-10-19T17:17:47.815Z,62.20
2022-10-19T17:20:18.181Z,62.47
2022-10-19T17:22:55.610Z,62.45
2022-10-19T17:25:26.149Z,63.05
2022-10-19T17:27:56.600Z,63.31
2022-10-19T17:30:28.561Z,63.58
2022-10-19T17:33:01.726Z,63.26
2022-10-19T17:35:30.109Z,63.58
2022-10-19T17:37:59.164Z,64.41
2022-10-19T17:40:30.271Z,64.38
2022-10-19T17:42:59.527Z,64.62
2022-10-19T17:45:29.037Z,64.84
2022-10-19T17:47:58.278Z,65.31
2022-10-19T17:50:27.493Z,65.54
2022-10-19T17:52:56.502Z,65.40
2022-10-19T17:55:26.076Z,65.58
2022-10-19T17:57:56.233Z,65.66
2022-10-19T18:00:26.975Z,66.13
2022-10-19T18:02:58.185Z,66.56
2022-10-19T18:05:30.321Z,66.58
2022-10-19T18:07:58.796Z,66.93
2022-10-19T18:10:28.663Z,67.51
2022-10-19T18:13:01.148Z,68.13
2022-10-19T18:15:29.692Z,68.52
2022-10-19T18:18:00.534Z,68.40
2022-10-19T18:20:29.254Z,68.70
2022-10-19T18:22:57.984Z,68.64
2022-10-19T18:25:49.369Z,68.75
2022-10-19T18:28:19.252Z,69.02
2022-10-19T18:30:48.492Z,69.35
2022-10-19T18:33:19.280Z,69.57
2022-10-19T18:35:48.151Z,69.64
2022-10-19T18:38:16.947Z,69.69
2022-10-19T18:40:46.743Z,69.75
2022-10-19T18:43:16.400Z,69.97
2022-10-19T18:45:53.583Z,70.27
2022-10-19T18:48:24.192Z,70.72
2022-10-19T18:50:54.147Z,70.96
2022-10-19T18:53:23.419Z,70.72
2022-10-19T18:55:59.783Z,71.01
2022-10-19T18:58:30.498Z,71.54
2022-10-19T19:01:09.609Z,70.88
2022-10-19T19:03:43.554Z,69.46
2022-10-19T19:06:14.356Z,68.72
2022-10-19T19:11:20.694Z,68.00
2022-10-19T19:13:50.695Z,68.07
2022-10-19T19:16:22.803Z,67.80
2022-10-19T19:18:54.687Z,67.75
2022-10-19T19:21:27.018Z,67.70
2022-10-19T19:23:59.751Z,67.37
2022-10-19T19:26:31.550Z,67.99
2022-10-19T19:29:00.261Z,67.49
2022-10-19T19:31:30.470Z,67.68
2022-10-19T19:34:02.083Z,67.38
2022-10-19T19:36:31.168Z,67.76
2022-10-19T19:39:00.663Z,68.09
2022-10-19T19:41:34.220Z,68.00
2022-10-19T19:44:04.949Z,68.32
2022-10-19T19:46:36.089Z,68.45
2022-10-19T19:49:06.657Z,68.59
2022-10-19T19:51:38.389Z,68.75
2022-10-19T19:54:08.651Z,69.12
2022-10-19T19:56:37.553Z,69.29
2022-10-19T19:59:06.411Z,69.35
2022-10-19T20:01:38.101Z,69.57
2022-10-19T20:04:07.242Z,69.53
2022-10-19T20:06:37.873Z,69.69
2022-10-19T20:09:07.852Z,70.10
2022-10-19T20:11:42.368Z,70.11
2022-10-19T20:14:12.764Z,70.62
2022-10-19T20:16:46.635Z,70.92
2022-10-19T20:19:18.641Z,71.17
2022-10-19T20:21:47.319Z,71.25
2022-10-19T20:24:16.666Z,71.51
2022-10-19T20:26:47.645Z,71.89
2022-10-19T20:29:18.748Z,72.07
2022-10-19T20:31:48.837Z,71.99
2022-10-19T20:34:23.853Z,71.94
2022-10-19T20:36:55.061Z,72.36
2022-10-19T20:39:24.185Z,72.36
2022-10-19T20:41:52.773Z,72.92
2022-10-19T20:44:21.934Z,73.10
2022-10-19T20:46:56.549Z,74.06
2022-10-19T20:49:28.592Z,74.29
2022-10-19T20:51:58.820Z,74.66
2022-10-19T20:54:28.060Z,74.69
2022-10-19T20:56:56.648Z,75.28
2022-10-19T20:59:30.398Z,75.88
2022-10-19T21:02:05.239Z,76.42
2022-10-19T21:04:33.456Z,76.93
2022-10-19T21:07:05.036Z,77.05
2022-10-19T21:09:38.050Z,77.28
2022-10-19T21:12:06.767Z,77.69
2022-10-19T21:14:37.127Z,77.77
2022-10-19T21:17:09.728Z,78.25
2022-10-19T21:19:43.181Z,78.52
2022-10-19T21:22:15.128Z,78.99
2022-10-19T21:24:47.391Z,79.36
2022-10-19T21:27:17.560Z,79.14
2022-10-19T21:29:48.386Z,79.23
2022-10-19T21:32:22.631Z,78.82
2022-10-19T21:34:51.600Z,78.75
2022-10-19T21:37:21.576Z,78.78
2022-10-19T21:39:56.956Z,79.08
2022-10-19T21:42:27.196Z,79.15
2022-10-19T21:45:06.232Z,78.86
2022-10-19T21:47:48.248Z,80.28
2022-10-19T21:50:20.913Z,79.98
2022-10-19T21:52:52.210Z,79.37
2022-10-19T21:55:21.288Z,78.49
2022-10-19T21:57:50.376Z,79.38
2022-10-19T22:00:19.738Z,79.39
2022-10-19T22:02:51.925Z,79.39
2022-10-19T22:05:20.127Z,78.86
2022-10-19T22:07:48.494Z,78.14
2022-10-19T22:10:20.492Z,78.52
2022-10-19T22:12:54.031Z,77.72
2022-10-19T22:15:22.948Z,77.19
2022-10-19T22:17:54.772Z,77.97
2022-10-19T22:20:27.885Z,78.45
2022-10-19T22:22:56.897Z,77.82
2022-10-19T22:25:28.895Z,77.18
2022-10-19T22:28:01.225Z,77.66
2022-10-19T22:30:34.230Z,77.97
2022-10-19T22:33:05.958Z,77.78
2022-10-19T22:35:36.639Z,77.99
2022-10-19T22:38:08.154Z,77.61
2022-10-19T22:40:38.806Z,77.95
2022-10-19T22:43:07.069Z,77.88
2022-10-19T22:45:35.377Z,78.90
2022-10-19T22:48:08.429Z,78.67
2022-10-19T22:50:37.090Z,79.27
2022-10-19T22:53:08.140Z,80.35
2022-10-19T22:55:38.300Z,81.03
2022-10-19T22:58:12.524Z,80.69
2022-10-19T23:00:41.408Z,81.08
2022-10-19T23:03:11.589Z,81.82
2022-10-19T23:05:40.134Z,82.14
2022-10-19T23:08:08.783Z,82.49
2022-10-19T23:10:37.316Z,82.64
2022-10-19T23:13:05.697Z,82.83
2022-10-19T23:15:43.127Z,82.71
2022-10-19T23:18:14.061Z,83.02
2022-10-19T23:20:46.650Z,82.84
2022-10-19T23:23:15.073Z,82.98
2022-10-19T23:25:44.853Z,83.72
2022-10-19T23:28:13.850Z,85.00
2022-10-19T23:30:42.390Z,85.18
2022-10-19T23:33:10.911Z,85.85
2022-10-19T23:35:41.291Z,86.10
2022-10-19T23:38:11.174Z,85.95
2022-10-19T23:40:39.417Z,86.42
2022-10-19T23:43:11.562Z,86.17
2022-10-19T23:45:41.794Z,86.54
2022-10-19T23:48:10.039Z,86.66
2022-10-19T23:50:39.760Z,87.24
2022-10-19T23:53:09.431Z,87.98
2022-10-19T23:55:37.537Z,87.38
2022-10-19T23:58:06.298Z,87.57
